OMFJ

Fujairah International Airport

Airport
ICAO code
OMFJ
IATA Code
FJR
Summary
ICAO Region
MID
ICAO Territory
Location

Fujairah,

Serving
Fujairah
Elevation
152 ft
Coordinates
25° 6' 44" N , 56° 19' 26" E
KCC
Metar
Observation
OMFJ 281200Z 09006KT 060V120 CAVOK 29/17 Q1011 A2986
Station
Fujairah
Date/Time
2022-11-28 12:00:00
Wind direction
90°
Wind speed
06 kts
Lowest cloud amount
clouds and visibility OK
Temperature
29°C
Dew point
17°C
Humidity
48%
QNH
1011 hPa
Weather condition
n/a

Description

International airport serving the emirate of Fujairah, UAE.

Climatology

Hot Desert Climate (Köppen climate classification BWh) - Hot desert climates are typically found in the subtropics where there is unbroken sunshine for the whole year due to the stable descending air and high pressure, little or no precipitation. Maximum temperatures of 40°C to 45°C are not uncommon, particularly during the warmer months of the year.

Runways

Designator Length Width Surface Rops
11/29 3750 45 ASP Yes/Yes

Airport map

Aerial View

SKYbrary Partners:

Safety knowledge contributed by: